createdAt,value
2019-04-13T00:01:21.295Z,18.20
2019-04-13T00:03:49.727Z,17.07
2019-04-13T00:06:25.597Z,17.90
2019-04-13T00:08:54.020Z,17.27
2019-04-13T00:11:32.659Z,18.10
2019-04-13T00:14:01.116Z,20.93
2019-04-13T00:16:29.674Z,19.90
2019-04-13T00:18:58.096Z,20.93
2019-04-13T00:21:26.501Z,23.37
2019-04-13T00:23:54.980Z,20.23
2019-04-13T00:26:23.388Z,21.33
2019-04-13T00:28:51.835Z,18.30
2019-04-13T00:31:20.246Z,18.63
2019-04-13T00:33:48.651Z,18.57
2019-04-13T00:36:17.070Z,18.37
2019-04-13T00:38:45.463Z,20.60
2019-04-13T00:41:13.969Z,24.97
2019-04-13T00:43:42.363Z,21.90
2019-04-13T00:46:10.763Z,22.53
2019-04-13T00:48:39.184Z,21.80
2019-04-13T00:51:07.766Z,21.53
2019-04-13T00:53:36.186Z,20.57
2019-04-13T00:56:04.652Z,24.57
2019-04-13T00:58:33.066Z,18.67
2019-04-13T01:01:01.493Z,20.93
2019-04-13T01:03:29.912Z,21.97
2019-04-13T01:05:58.406Z,21.53
2019-04-13T01:08:26.815Z,22.43
2019-04-13T01:10:55.314Z,22.07
2019-04-13T01:13:23.705Z,21.03
2019-04-13T01:15:52.107Z,21.90
2019-04-13T01:18:20.580Z,20.67
2019-04-13T01:20:49.006Z,19.70
2019-04-13T01:23:17.425Z,23.47
2019-04-13T01:25:45.846Z,21.57
2019-04-13T01:28:14.299Z,24.87
2019-04-13T01:30:42.720Z,26.00
2019-04-13T01:33:11.124Z,21.20
2019-04-13T01:35:39.544Z,25.83
2019-04-13T01:38:08.015Z,23.57
2019-04-13T01:40:36.405Z,25.20
2019-04-13T01:43:04.970Z,23.30
2019-04-13T01:45:33.440Z,24.40
2019-04-13T01:48:01.928Z,22.83
2019-04-13T01:50:30.346Z,27.23
2019-04-13T01:52:58.747Z,22.50
2019-04-13T01:55:27.161Z,25.50
2019-04-13T01:57:55.661Z,24.57
2019-04-13T02:00:28.150Z,23.47
2019-04-13T02:02:56.557Z,24.70
2019-04-13T02:05:42.675Z,22.30
2019-04-13T02:08:24.857Z,21.70
2019-04-13T02:10:55.002Z,24.83
2019-04-13T02:13:23.404Z,26.40
2019-04-13T02:15:51.795Z,25.70
2019-04-13T02:18:20.217Z,25.87
2019-04-13T02:20:48.637Z,22.47
2019-04-13T02:23:17.052Z,18.50
2019-04-13T02:25:45.464Z,23.83
2019-04-13T02:28:13.960Z,25.90
2019-04-13T02:30:42.381Z,26.37
2019-04-13T02:33:10.779Z,25.77
2019-04-13T02:35:39.193Z,23.30
2019-04-13T02:38:07.599Z,22.13
2019-04-13T02:40:36.039Z,26.70
2019-04-13T02:43:04.683Z,24.67
2019-04-13T02:45:33.118Z,27.30
2019-04-13T02:48:01.523Z,28.03
2019-04-13T02:50:29.930Z,26.13
2019-04-13T02:52:58.331Z,28.10
2019-04-13T02:55:26.794Z,28.10
2019-04-13T02:57:55.195Z,27.00
2019-04-13T03:00:23.721Z,31.47
2019-04-13T03:02:52.558Z,26.23
2019-04-13T03:05:21.051Z,28.60
2019-04-13T03:07:49.529Z,33.03
2019-04-13T03:10:18.013Z,33.30
2019-04-13T03:12:46.521Z,29.67
2019-04-13T03:15:15.306Z,28.57
2019-04-13T03:17:45.522Z,28.87
2019-04-13T03:20:27.543Z,27.80
2019-04-13T03:22:56.030Z,25.70
2019-04-13T03:25:24.426Z,30.27
2019-04-13T03:27:52.845Z,24.50
2019-04-13T03:30:22.914Z,24.37
2019-04-13T03:32:51.387Z,25.80
2019-04-13T03:35:19.819Z,29.40
2019-04-13T03:37:48.214Z,26.67
2019-04-13T03:40:16.680Z,26.60
2019-04-13T03:42:45.114Z,25.20
2019-04-13T03:45:13.987Z,24.70
2019-04-13T03:47:42.409Z,23.07
2019-04-13T03:50:10.955Z,23.00
2019-04-13T03:52:39.374Z,22.60
2019-04-13T03:55:07.903Z,26.40
2019-04-13T03:57:36.297Z,21.13
2019-04-13T04:00:06.645Z,26.90
2019-04-13T04:02:35.050Z,24.50
2019-04-13T04:05:03.831Z,28.90
2019-04-13T04:07:32.256Z,27.80
2019-04-13T04:10:00.649Z,25.90
2019-04-13T04:12:29.076Z,25.57
2019-04-13T04:14:57.506Z,25.87
2019-04-13T04:17:25.944Z,30.93
2019-04-13T04:19:54.326Z,24.77
2019-04-13T04:22:22.756Z,24.97
2019-04-13T04:24:51.144Z,23.90
2019-04-13T04:27:19.566Z,22.70
2019-04-13T04:29:47.992Z,23.20
2019-04-13T04:32:16.428Z,24.37
2019-04-13T04:34:44.816Z,19.00
2019-04-13T04:37:13.231Z,23.70
2019-04-13T04:39:41.629Z,19.87
2019-04-13T04:42:10.045Z,20.17
2019-04-13T04:44:38.461Z,17.00
2019-04-13T04:47:06.895Z,18.00
2019-04-13T04:49:35.320Z,17.87
2019-04-13T04:52:03.725Z,19.73
2019-04-13T04:54:32.158Z,18.70
2019-04-13T04:57:00.578Z,18.87
2019-04-13T04:59:29.021Z,16.17
2019-04-13T05:01:57.395Z,17.87
2019-04-13T05:04:25.809Z,22.33
2019-04-13T05:06:54.295Z,21.00
2019-04-13T05:09:22.694Z,23.57
2019-04-13T05:11:51.116Z,23.03
2019-04-13T05:14:19.527Z,18.77
2019-04-13T05:16:47.949Z,17.10
2019-04-13T05:19:16.348Z,18.97
2019-04-13T05:21:44.756Z,17.70
2019-04-13T05:24:13.194Z,23.97
2019-04-13T05:26:41.591Z,19.37
2019-04-13T05:29:10.007Z,29.43
2019-04-13T05:31:38.409Z,20.30
2019-04-13T05:34:06.833Z,19.23
2019-04-13T05:36:47.034Z,20.30
2019-04-13T05:39:05.984Z,17.07
2019-04-13T05:41:34.417Z,17.00
2019-04-13T05:44:02.922Z,19.93
2019-04-13T05:46:31.388Z,20.53
2019-04-13T05:48:59.867Z,22.27
2019-04-13T05:51:28.283Z,24.33
2019-04-13T05:53:56.682Z,22.43
2019-04-13T05:56:25.167Z,24.73
2019-04-13T05:59:02.689Z,22.60
2019-04-13T06:01:23.762Z,21.80
2019-04-13T06:03:53.025Z,23.57
2019-04-13T06:06:21.531Z,21.27
2019-04-13T06:08:49.937Z,26.37
2019-04-13T06:11:18.420Z,37.80
2019-04-13T06:13:46.855Z,26.50
2019-04-13T06:16:15.282Z,26.10
2019-04-13T06:18:43.706Z,27.33
2019-04-13T06:21:12.109Z,29.20
2019-04-13T06:23:40.566Z,25.43
2019-04-13T06:26:08.970Z,26.43
2019-04-13T06:28:37.383Z,27.03
2019-04-13T06:31:23.319Z,27.30
2019-04-13T06:33:59.471Z,23.47
2019-04-13T06:36:27.950Z,27.60
2019-04-13T06:38:59.462Z,30.63
2019-04-13T06:41:26.565Z,25.30
2019-04-13T06:43:54.961Z,27.97
2019-04-13T06:46:23.394Z,23.63
2019-04-13T06:48:51.808Z,22.60
2019-04-13T06:51:20.355Z,27.20
2019-04-13T06:53:48.786Z,22.50
2019-04-13T06:56:17.218Z,27.67
2019-04-13T06:58:45.684Z,25.70
2019-04-13T07:01:14.149Z,24.27
2019-04-13T07:03:42.569Z,25.70
2019-04-13T07:06:11.114Z,24.07
2019-04-13T07:08:41.159Z,25.20
2019-04-13T07:11:11.198Z,26.33
2019-04-13T07:13:49.916Z,20.70
2019-04-13T07:16:22.848Z,20.73
2019-04-13T07:18:51.272Z,22.50
2019-04-13T07:21:20.050Z,19.80
2019-04-13T07:23:48.695Z,19.40
2019-04-13T07:26:17.118Z,18.63
2019-04-13T07:28:47.640Z,19.43
2019-04-13T07:31:15.653Z,16.20
2019-04-13T07:33:44.054Z,20.70
2019-04-13T07:36:12.499Z,18.60
2019-04-13T07:38:40.909Z,16.73
2019-04-13T07:41:09.419Z,17.93
2019-04-13T07:43:37.915Z,15.33
2019-04-13T07:46:13.790Z,17.97
2019-04-13T07:48:56.838Z,15.23
2019-04-13T07:54:20.703Z,14.47
2019-04-13T07:56:49.120Z,15.40
2019-04-13T07:59:18.428Z,14.37
2019-04-13T08:01:56.527Z,15.63
2019-04-13T08:04:17.763Z,15.50
2019-04-13T08:06:46.157Z,11.73
2019-04-13T08:09:14.577Z,12.00
2019-04-13T08:11:43.020Z,11.30
2019-04-13T08:14:15.547Z,13.03
2019-04-13T08:16:43.937Z,13.17
2019-04-13T08:19:16.713Z,14.73
2019-04-13T08:21:45.265Z,14.30
2019-04-13T08:24:13.664Z,13.87
2019-04-13T08:26:42.093Z,12.43
2019-04-13T08:29:10.560Z,13.07
2019-04-13T08:31:39.045Z,16.40
2019-04-13T08:34:07.505Z,14.20
2019-04-13T08:36:35.987Z,14.53
2019-04-13T08:39:06.438Z,17.30
2019-04-13T08:41:35.012Z,13.13
2019-04-13T08:44:06.015Z,13.57
2019-04-13T08:46:33.701Z,14.90
2019-04-13T08:49:02.174Z,16.50
2019-04-13T08:51:30.650Z,12.47
2019-04-13T08:53:59.046Z,15.67
2019-04-13T08:56:30.786Z,14.73
2019-04-13T08:58:57.852Z,13.87
2019-04-13T09:01:26.317Z,14.30
2019-04-13T09:03:54.757Z,22.03
2019-04-13T09:06:23.152Z,15.77
2019-04-13T09:08:51.596Z,15.27
2019-04-13T09:11:20.744Z,13.00
2019-04-13T09:13:49.882Z,13.03
2019-04-13T09:16:18.575Z,13.27
2019-04-13T09:18:56.914Z,13.47
2019-04-13T09:21:29.680Z,16.37
2019-04-13T09:23:58.126Z,22.47
2019-04-13T09:26:26.570Z,17.13
2019-04-13T09:28:54.975Z,14.10
2019-04-13T09:31:25.481Z,15.33
2019-04-13T09:33:54.417Z,16.33
2019-04-13T09:36:22.832Z,14.50
2019-04-13T09:38:51.240Z,13.20
2019-04-13T09:41:19.712Z,15.33
2019-04-13T09:43:55.669Z,13.53
2019-04-13T09:46:22.608Z,16.00
2019-04-13T09:48:50.978Z,15.30
2019-04-13T09:51:19.418Z,14.70
2019-04-13T09:53:48.729Z,17.80
2019-04-13T09:56:17.437Z,19.83
2019-04-13T09:58:45.853Z,19.83
2019-04-13T10:01:14.336Z,20.13
2019-04-13T10:03:42.784Z,18.27
2019-04-13T10:06:11.303Z,22.30
2019-04-13T10:08:41.974Z,17.97
2019-04-13T10:11:10.403Z,16.10
2019-04-13T10:13:40.459Z,17.27
2019-04-13T10:16:22.842Z,17.03
2019-04-13T10:18:55.393Z,16.70
2019-04-13T10:21:23.031Z,15.90
2019-04-13T10:23:51.453Z,18.10
2019-04-13T10:26:20.005Z,20.10
2019-04-13T10:28:48.675Z,20.87
2019-04-13T10:31:17.210Z,19.07
2019-04-13T10:33:45.676Z,19.50
2019-04-13T10:36:14.076Z,15.97
2019-04-13T10:38:42.514Z,16.70
2019-04-13T10:41:10.910Z,17.67
2019-04-13T10:43:39.358Z,14.93
2019-04-13T10:46:15.539Z,16.03
2019-04-13T10:49:03.944Z,16.27
2019-04-13T10:51:36.691Z,17.80
2019-04-13T10:54:05.335Z,14.80
2019-04-13T10:56:33.821Z,17.30
2019-04-13T10:59:02.237Z,21.83
2019-04-13T11:01:30.677Z,15.00
2019-04-13T11:03:59.069Z,15.40
2019-04-13T11:06:27.468Z,14.23
2019-04-13T11:08:55.872Z,14.20
2019-04-13T11:11:24.300Z,14.60
2019-04-13T11:13:52.703Z,15.20
2019-04-13T11:16:21.186Z,13.37
2019-04-13T11:18:49.663Z,13.97
2019-04-13T11:21:18.117Z,14.17
2019-04-13T11:23:46.625Z,13.63
2019-04-13T11:26:15.195Z,12.67
2019-04-13T11:28:43.607Z,14.63
2019-04-13T11:31:12.019Z,15.20
2019-04-13T11:33:42.659Z,17.00
2019-04-13T11:36:10.629Z,13.97
2019-04-13T11:38:39.043Z,13.60
2019-04-13T11:41:14.828Z,13.10
2019-04-13T11:43:44.878Z,14.63
2019-04-13T11:46:30.177Z,13.23
2019-04-13T11:49:03.075Z,14.90
2019-04-13T11:51:32.518Z,13.17
2019-04-13T11:54:03.745Z,12.87
2019-04-13T11:56:31.131Z,20.77
2019-04-13T11:58:59.542Z,12.53
2019-04-13T12:01:35.636Z,11.80
2019-04-13T12:04:08.850Z,11.33
2019-04-13T12:06:55.102Z,12.10
2019-04-13T12:09:25.196Z,10.73
2019-04-13T12:12:11.608Z,10.40
2019-04-13T12:14:59.439Z,9.50
2019-04-13T12:17:32.197Z,11.37
2019-04-13T12:20:17.372Z,16.73
2019-04-13T12:22:46.037Z,10.33
2019-04-13T12:25:14.536Z,10.97
2019-04-13T12:27:42.955Z,13.20
2019-04-13T12:30:16.170Z,11.53
2019-04-13T12:32:47.121Z,12.00
2019-04-13T12:35:14.792Z,13.50
2019-04-13T12:37:43.229Z,13.73
2019-04-13T12:40:13.344Z,12.43
2019-04-13T12:42:41.852Z,13.07
2019-04-13T12:45:10.520Z,13.10
2019-04-13T12:47:42.176Z,13.13
2019-04-13T12:50:09.307Z,15.00
2019-04-13T12:52:37.692Z,11.60
2019-04-13T12:55:06.317Z,11.60
2019-04-13T12:57:34.678Z,12.57
2019-04-13T13:00:08.043Z,8.40
2019-04-13T13:02:39.594Z,11.07
2019-04-13T13:05:24.842Z,9.60
2019-04-13T13:07:53.271Z,10.03
2019-04-13T13:10:25.183Z,8.53
2019-04-13T13:12:52.150Z,8.27
2019-04-13T13:15:20.611Z,9.37
2019-04-13T13:17:49.104Z,7.77
2019-04-13T13:20:17.738Z,10.40
2019-04-13T13:22:46.258Z,10.97
2019-04-13T13:25:14.724Z,9.93
2019-04-13T13:27:43.211Z,11.20
2019-04-13T13:30:11.812Z,14.03
2019-04-13T13:32:40.315Z,12.57
2019-04-13T13:35:09.180Z,10.53
2019-04-13T13:37:38.577Z,11.63
2019-04-13T13:40:08.727Z,10.80
2019-04-13T13:42:38.535Z,10.43
2019-04-13T13:45:07.512Z,9.60
2019-04-13T13:47:35.912Z,9.57
2019-04-13T13:50:06.761Z,8.30
2019-04-13T13:52:37.848Z,10.90
2019-04-13T13:55:07.403Z,9.97
2019-04-13T13:57:37.472Z,10.37
2019-04-13T14:00:09.568Z,11.43
2019-04-13T14:02:37.994Z,11.27
2019-04-13T14:05:06.651Z,9.20
2019-04-13T14:07:35.067Z,13.80
2019-04-13T14:10:12.116Z,7.87
2019-04-13T14:12:41.972Z,9.80
2019-04-13T14:15:12.270Z,8.00
2019-04-13T14:17:40.768Z,6.67
2019-04-13T14:20:10.000Z,6.50
2019-04-13T14:22:38.531Z,7.03
2019-04-13T14:25:07.269Z,9.50
2019-04-13T14:27:35.746Z,8.90
2019-04-13T14:30:06.570Z,8.50
2019-04-13T14:32:35.065Z,9.17
2019-04-13T14:35:05.890Z,8.17
2019-04-13T14:37:34.537Z,9.03
2019-04-13T14:40:03.501Z,11.97
2019-04-13T14:42:33.680Z,8.50
2019-04-13T14:45:02.128Z,9.17
2019-04-13T14:47:30.590Z,10.90
2019-04-13T14:49:59.276Z,8.87
2019-04-13T14:52:27.646Z,8.07
2019-04-13T14:54:59.788Z,10.50
2019-04-13T14:57:26.181Z,8.53
2019-04-13T14:59:54.611Z,9.70
2019-04-13T15:02:23.025Z,8.37
2019-04-13T15:04:51.571Z,13.40
2019-04-13T15:07:19.992Z,10.60
2019-04-13T15:09:52.517Z,10.70
2019-04-13T15:12:18.540Z,8.40
2019-04-13T15:14:47.467Z,7.73
2019-04-13T15:17:18.062Z,8.27
2019-04-13T15:20:01.057Z,9.27
2019-04-13T15:22:17.712Z,7.43
2019-04-13T15:24:50.092Z,6.60
2019-04-13T15:27:16.464Z,7.20
2019-04-13T15:29:45.669Z,8.10
2019-04-13T15:32:14.777Z,9.00
2019-04-13T15:34:43.278Z,8.90
2019-04-13T15:37:12.749Z,10.07
2019-04-13T15:39:45.071Z,9.43
2019-04-13T15:42:17.447Z,12.60
2019-04-13T15:44:45.348Z,12.23
2019-04-13T15:47:15.360Z,8.97
2019-04-13T15:49:42.459Z,8.90
2019-04-13T15:52:12.105Z,7.93
2019-04-13T15:54:41.526Z,16.03
2019-04-13T15:57:11.521Z,11.10
2019-04-13T15:59:41.476Z,12.13
2019-04-13T16:02:10.346Z,13.07
2019-04-13T16:04:39.623Z,12.20
2019-04-13T16:07:09.450Z,13.30
2019-04-13T16:09:56.046Z,14.70
2019-04-13T16:12:27.603Z,14.13
2019-04-13T16:14:56.917Z,11.70
2019-04-13T16:17:25.430Z,12.40
2019-04-13T16:19:54.594Z,16.00
2019-04-13T16:22:23.449Z,13.27
2019-04-13T16:24:52.618Z,11.47
2019-04-13T16:27:20.998Z,12.00
2019-04-13T16:30:07.083Z,11.57
2019-04-13T16:32:38.303Z,19.33
2019-04-13T16:35:15.806Z,12.30
2019-04-13T16:37:46.274Z,18.10
2019-04-13T16:40:16.249Z,11.13
2019-04-13T16:42:44.711Z,13.90
2019-04-13T16:45:15.123Z,11.00
2019-04-13T16:47:51.687Z,23.53
2019-04-13T16:50:34.598Z,16.37
2019-04-13T16:53:10.600Z,14.17
2019-04-13T16:55:43.799Z,31.10
2019-04-13T16:58:25.828Z,16.27
2019-04-13T17:01:02.509Z,13.10
2019-04-13T17:03:41.450Z,15.57
2019-04-13T17:06:11.786Z,11.97
2019-04-13T17:08:41.215Z,13.03
2019-04-13T17:11:09.731Z,14.83
2019-04-13T17:13:39.170Z,12.00
2019-04-13T17:16:07.618Z,14.80
2019-04-13T17:18:44.643Z,13.00
2019-04-13T17:21:14.890Z,14.30
2019-04-13T17:23:50.646Z,12.80
2019-04-13T17:26:33.515Z,13.07
2019-04-13T17:29:10.938Z,13.60
2019-04-13T17:31:50.042Z,13.73
2019-04-13T17:34:36.260Z,16.13
2019-04-13T17:37:06.995Z,17.33
2019-04-13T17:39:36.087Z,12.70
2019-04-13T17:42:29.500Z,13.80
2019-04-13T17:44:56.210Z,19.63
2019-04-13T17:47:26.623Z,14.03
2019-04-13T17:50:13.695Z,13.43
2019-04-13T17:52:44.355Z,13.57
2019-04-13T17:55:17.316Z,14.10
2019-04-13T17:57:51.649Z,16.83
2019-04-13T18:00:45.234Z,15.67
2019-04-13T18:03:32.770Z,16.40
2019-04-13T18:06:15.150Z,13.73
2019-04-13T18:09:01.952Z,14.90
2019-04-13T18:11:42.513Z,14.97
2019-04-13T18:14:13.104Z,17.10
2019-04-13T18:16:46.590Z,18.27
2019-04-13T18:19:17.053Z,14.80
2019-04-13T18:21:45.575Z,19.40
2019-04-13T18:24:14.122Z,17.10
2019-04-13T18:26:43.882Z,15.13
2019-04-13T18:29:13.100Z,16.50
2019-04-13T18:31:42.268Z,19.63
2019-04-13T18:34:10.864Z,17.03
2019-04-13T18:36:40.577Z,18.87
2019-04-13T18:39:09.317Z,16.67
2019-04-13T18:41:37.699Z,16.80
2019-04-13T18:44:07.248Z,17.80
2019-04-13T18:46:36.261Z,21.60
2019-04-13T18:49:05.310Z,23.50
2019-04-13T18:51:34.024Z,20.80
2019-04-13T18:54:03.084Z,20.53
2019-04-13T18:56:31.671Z,22.80
2019-04-13T18:59:00.071Z,23.53
2019-04-13T19:01:29.382Z,23.33
2019-04-13T19:03:57.803Z,23.40
2019-04-13T19:06:27.316Z,24.53
2019-04-13T19:08:56.031Z,18.93
2019-04-13T19:11:24.512Z,24.20
2019-04-13T19:13:52.932Z,26.70
2019-04-13T19:16:21.399Z,28.27
2019-04-13T19:18:49.794Z,29.87
2019-04-13T19:21:18.359Z,23.77
2019-04-13T19:23:46.795Z,24.13
2019-04-13T19:26:15.346Z,25.77
2019-04-13T19:28:43.747Z,24.63
2019-04-13T19:31:12.175Z,35.80
2019-04-13T19:33:40.626Z,32.43
2019-04-13T19:36:09.046Z,33.13
2019-04-13T19:38:37.487Z,30.20
2019-04-13T19:41:05.965Z,34.90
2019-04-13T19:43:34.399Z,29.30
2019-04-13T19:46:02.886Z,27.13
2019-04-13T19:48:31.320Z,29.43
2019-04-13T19:50:59.759Z,32.00
2019-04-13T19:53:29.793Z,32.00
2019-04-13T19:55:59.885Z,29.53
2019-04-13T19:58:28.306Z,30.50
2019-04-13T20:00:56.735Z,26.73
2019-04-13T20:03:25.254Z,39.40
2019-04-13T20:05:53.684Z,34.30
2019-04-13T20:08:22.142Z,27.27
2019-04-13T20:10:50.557Z,26.87
2019-04-13T20:13:30.875Z,24.57
2019-04-13T20:15:49.206Z,28.73
2019-04-13T20:18:17.684Z,24.00
2019-04-13T20:20:46.198Z,26.67
2019-04-13T20:23:14.608Z,24.90
2019-04-13T20:25:43.926Z,31.93
2019-04-13T20:28:13.622Z,25.00
2019-04-13T20:30:43.375Z,24.97
2019-04-13T20:33:13.155Z,25.97
2019-04-13T20:35:55.905Z,26.53
2019-04-13T20:38:12.918Z,26.40
2019-04-13T20:40:44.425Z,26.40
2019-04-13T20:43:14.695Z,22.37
2019-04-13T20:45:43.177Z,26.27
2019-04-13T20:48:11.884Z,25.40
2019-04-13T20:50:41.189Z,27.70
2019-04-13T20:53:09.671Z,33.20
2019-04-13T20:55:39.221Z,28.00
2019-04-13T20:58:07.780Z,26.43
2019-04-13T21:00:36.307Z,30.33
2019-04-13T21:03:05.876Z,30.23
2019-04-13T21:05:34.425Z,31.10
2019-04-13T21:08:04.041Z,32.27
2019-04-13T21:10:32.527Z,27.73
2019-04-13T21:13:01.005Z,31.43
2019-04-13T21:15:29.497Z,27.23
2019-04-13T21:17:57.924Z,29.47
2019-04-13T21:20:27.154Z,29.93
2019-04-13T21:22:55.641Z,29.60
2019-04-13T21:25:25.123Z,30.37
2019-04-13T21:27:53.612Z,30.13
2019-04-13T21:30:22.925Z,35.40
2019-04-13T21:32:51.402Z,34.33
2019-04-13T21:35:20.938Z,33.97
2019-04-13T21:37:50.791Z,29.83
2019-04-13T21:40:19.244Z,30.63
2019-04-13T21:42:47.682Z,32.37
2019-04-13T21:45:16.684Z,30.27
2019-04-13T21:47:45.233Z,33.37
2019-04-13T21:50:28.347Z,35.60
2019-04-13T21:53:04.919Z,34.80
2019-04-13T21:55:44.031Z,31.80
2019-04-13T21:58:12.575Z,38.27
2019-04-13T22:01:10.767Z,38.60
2019-04-13T22:03:40.513Z,36.00
2019-04-13T22:06:10.240Z,45.57
2019-04-13T22:08:38.807Z,41.60
2019-04-13T22:11:08.274Z,40.67
2019-04-13T22:13:36.731Z,45.90
2019-04-13T22:16:05.923Z,41.83
2019-04-13T22:18:34.604Z,46.33
2019-04-13T22:21:03.028Z,43.23
2019-04-13T22:23:32.475Z,41.47
2019-04-13T22:26:01.007Z,43.20
2019-04-13T22:28:34.367Z,41.87
2019-04-13T22:31:04.947Z,40.10
2019-04-13T22:33:33.483Z,42.20
2019-04-13T22:36:07.058Z,43.20
2019-04-13T22:38:35.536Z,45.03
2019-04-13T22:41:04.915Z,46.90
2019-04-13T22:43:34.720Z,44.60
2019-04-13T22:46:04.259Z,49.83
2019-04-13T22:48:40.130Z,47.23
2019-04-13T22:51:27.187Z,45.80
2019-04-13T22:54:10.036Z,47.53
2019-04-13T22:56:40.243Z,56.23
2019-04-13T22:59:09.712Z,46.27
2019-04-13T23:01:46.225Z,44.77
2019-04-13T23:04:14.727Z,47.37
2019-04-13T23:06:43.148Z,41.03
2019-04-13T23:09:12.761Z,45.27
2019-04-13T23:11:41.356Z,45.07
2019-04-13T23:14:11.050Z,47.13
2019-04-13T23:16:39.559Z,45.93
2019-04-13T23:19:09.047Z,49.93
2019-04-13T23:21:37.586Z,52.90
2019-04-13T23:24:06.072Z,49.30
2019-04-13T23:26:34.481Z,49.77
2019-04-13T23:29:04.151Z,43.57
2019-04-13T23:31:32.674Z,44.23
2019-04-13T23:34:01.100Z,47.23
2019-04-13T23:36:29.507Z,40.60
2019-04-13T23:38:57.942Z,37.40
2019-04-13T23:41:26.343Z,36.67
2019-04-13T23:43:54.763Z,35.00
2019-04-13T23:46:24.258Z,37.40
2019-04-13T23:48:52.770Z,34.53
2019-04-13T23:51:21.165Z,37.87
2019-04-13T23:53:49.589Z,43.07
2019-04-13T23:56:19.636Z,40.63
2019-04-13T23:58:49.679Z,36.40
